sensor_id;sensor_type;location;lat;lon;timestamp;pressure;altitude;pressure_sealevel;temperature;humidity
63181;BME280;49273;37.772;-122.432;2022-09-09T00:01:06;99865.59;;;25.52;48.36
63181;BME280;49273;37.772;-122.432;2022-09-09T00:03:42;99864.47;;;25.39;48.48
63181;BME280;49273;37.772;-122.432;2022-09-09T00:06:16;99863.68;;;25.30;48.68
63181;BME280;49273;37.772;-122.432;2022-09-09T00:09:02;99861.45;;;25.25;48.79
63181;BME280;49273;37.772;-122.432;2022-09-09T00:11:40;99854.27;;;25.03;49.45
63181;BME280;49273;37.772;-122.432;2022-09-09T00:14:16;99855.20;;;25.05;49.16
63181;BME280;49273;37.772;-122.432;2022-09-09T00:16:51;99855.21;;;25.29;48.57
63181;BME280;49273;37.772;-122.432;2022-09-09T00:19:24;99853.22;;;25.23;48.76
63181;BME280;49273;37.772;-122.432;2022-09-09T00:22:03;99845.23;;;24.93;49.36
63181;BME280;49273;37.772;-122.432;2022-09-09T00:24:41;99836.90;;;24.84;49.58
63181;BME280;49273;37.772;-122.432;2022-09-09T00:27:19;99839.16;;;24.54;50.40
63181;BME280;49273;37.772;-122.432;2022-09-09T00:29:54;99833.61;;;24.09;51.53
63181;BME280;49273;37.772;-122.432;2022-09-09T00:32:29;99831.84;;;24.47;50.79
63181;BME280;49273;37.772;-122.432;2022-09-09T00:35:03;99830.57;;;23.89;52.43
63181;BME280;49273;37.772;-122.432;2022-09-09T00:37:32;99832.57;;;24.11;51.92
63181;BME280;49273;37.772;-122.432;2022-09-09T00:40:06;99830.86;;;23.98;52.30
63181;BME280;49273;37.772;-122.432;2022-09-09T00:42:45;99822.33;;;23.59;53.61
63181;BME280;49273;37.772;-122.432;2022-09-09T00:45:26;99823.51;;;23.50;53.93
63181;BME280;49273;37.772;-122.432;2022-09-09T00:48:01;99820.82;;;23.81;53.07
63181;BME280;49273;37.772;-122.432;2022-09-09T00:50:43;99819.08;;;23.31;54.25
63181;BME280;49273;37.772;-122.432;2022-09-09T00:53:23;99822.44;;;23.46;54.00
63181;BME280;49273;37.772;-122.432;2022-09-09T00:56:03;99820.79;;;23.43;54.59
63181;BME280;49273;37.772;-122.432;2022-09-09T00:58:34;99824.61;;;23.56;53.75
63181;BME280;49273;37.772;-122.432;2022-09-09T01:01:04;99821.35;;;23.60;53.69
63181;BME280;49273;37.772;-122.432;2022-09-09T01:03:36;99819.24;;;23.34;54.40
63181;BME280;49273;37.772;-122.432;2022-09-09T01:06:15;99824.03;;;23.77;53.19
63181;BME280;49273;37.772;-122.432;2022-09-09T01:08:57;99821.18;;;23.35;53.95
63181;BME280;49273;37.772;-122.432;2022-09-09T01:11:35;99819.52;;;23.61;53.23
63181;BME280;49273;37.772;-122.432;2022-09-09T01:14:19;99821.90;;;23.53;53.56
63181;BME280;49273;37.772;-122.432;2022-09-09T01:16:51;99818.30;;;23.39;53.74
63181;BME280;49273;37.772;-122.432;2022-09-09T01:19:33;99826.91;;;24.37;51.28
63181;BME280;49273;37.772;-122.432;2022-09-09T01:22:10;99825.30;;;24.25;51.16
63181;BME280;49273;37.772;-122.432;2022-09-09T01:25:01;99816.81;;;24.72;49.97
63181;BME280;49273;37.772;-122.432;2022-09-09T01:27:34;99821.38;;;24.26;50.92
63181;BME280;49273;37.772;-122.432;2022-09-09T01:30:07;99815.29;;;23.37;53.67
63181;BME280;49273;37.772;-122.432;2022-09-09T01:32:42;99815.50;;;22.95;55.04
63181;BME280;49273;37.772;-122.432;2022-09-09T01:35:16;99809.85;;;22.50;56.15
63181;BME280;49273;37.772;-122.432;2022-09-09T01:37:47;99809.27;;;22.40;56.56
63181;BME280;49273;37.772;-122.432;2022-09-09T01:40:15;99810.18;;;22.08;57.73
63181;BME280;49273;37.772;-122.432;2022-09-09T01:42:43;99807.40;;;21.80;58.64
63181;BME280;49273;37.772;-122.432;2022-09-09T01:45:11;99808.78;;;21.66;59.32
63181;BME280;49273;37.772;-122.432;2022-09-09T01:47:39;99806.89;;;21.44;59.81
63181;BME280;49273;37.772;-122.432;2022-09-09T01:50:10;99807.20;;;21.50;59.95
63181;BME280;49273;37.772;-122.432;2022-09-09T01:52:41;99804.98;;;21.69;59.30
63181;BME280;49273;37.772;-122.432;2022-09-09T01:55:10;99803.43;;;21.63;59.49
63181;BME280;49273;37.772;-122.432;2022-09-09T01:57:43;99798.41;;;21.05;60.96
63181;BME280;49273;37.772;-122.432;2022-09-09T02:00:16;99803.38;;;21.37;60.02
63181;BME280;49273;37.772;-122.432;2022-09-09T02:02:52;99800.84;;;21.43;59.61
63181;BME280;49273;37.772;-122.432;2022-09-09T02:05:36;99795.47;;;21.18;60.57
63181;BME280;49273;37.772;-122.432;2022-09-09T02:08:08;99796.44;;;20.99;61.25
63181;BME280;49273;37.772;-122.432;2022-09-09T02:10:42;99795.59;;;20.93;61.47
63181;BME280;49273;37.772;-122.432;2022-09-09T02:13:15;99794.79;;;20.60;62.35
63181;BME280;49273;37.772;-122.432;2022-09-09T02:15:52;99794.36;;;20.43;63.02
63181;BME280;49273;37.772;-122.432;2022-09-09T02:18:25;99797.45;;;20.32;63.44
63181;BME280;49273;37.772;-122.432;2022-09-09T02:20:55;99795.53;;;20.14;63.90
63181;BME280;49273;37.772;-122.432;2022-09-09T02:23:24;99793.31;;;20.12;63.87
63181;BME280;49273;37.772;-122.432;2022-09-09T02:25:53;99787.49;;;19.96;64.41
63181;BME280;49273;37.772;-122.432;2022-09-09T02:28:24;99783.64;;;20.56;62.91
63181;BME280;49273;37.772;-122.432;2022-09-09T02:30:53;99782.14;;;20.27;63.23
63181;BME280;49273;37.772;-122.432;2022-09-09T02:33:26;99777.24;;;20.05;64.44
63181;BME280;49273;37.772;-122.432;2022-09-09T02:35:56;99771.86;;;19.90;64.96
63181;BME280;49273;37.772;-122.432;2022-09-09T02:38:27;99778.65;;;20.08;64.26
63181;BME280;49273;37.772;-122.432;2022-09-09T02:40:57;99778.70;;;19.91;64.89
63181;BME280;49273;37.772;-122.432;2022-09-09T02:43:25;99780.62;;;19.85;64.97
63181;BME280;49273;37.772;-122.432;2022-09-09T02:45:57;99783.66;;;19.70;65.67
63181;BME280;49273;37.772;-122.432;2022-09-09T02:48:35;99785.29;;;20.28;64.16
63181;BME280;49273;37.772;-122.432;2022-09-09T02:51:15;99782.37;;;19.70;65.47
63181;BME280;49273;37.772;-122.432;2022-09-09T02:53:50;99782.23;;;19.57;65.83
63181;BME280;49273;37.772;-122.432;2022-09-09T02:56:27;99784.50;;;19.84;65.70
63181;BME280;49273;37.772;-122.432;2022-09-09T02:58:57;99779.29;;;19.57;65.91
63181;BME280;49273;37.772;-122.432;2022-09-09T03:01:25;99781.48;;;19.40;66.63
63181;BME280;49273;37.772;-122.432;2022-09-09T03:03:53;99787.40;;;19.61;66.10
63181;BME280;49273;37.772;-122.432;2022-09-09T03:06:21;99790.93;;;19.61;66.03
63181;BME280;49273;37.772;-122.432;2022-09-09T03:08:49;99795.35;;;19.47;66.42
63181;BME280;49273;37.772;-122.432;2022-09-09T03:11:18;99798.75;;;19.84;65.39
63181;BME280;49273;37.772;-122.432;2022-09-09T03:13:46;99800.38;;;19.89;65.29
63181;BME280;49273;37.772;-122.432;2022-09-09T03:16:14;99804.88;;;19.79;65.63
63181;BME280;49273;37.772;-122.432;2022-09-09T03:18:42;99807.65;;;19.83;65.52
63181;BME280;49273;37.772;-122.432;2022-09-09T03:21:10;99811.75;;;20.07;64.60
63181;BME280;49273;37.772;-122.432;2022-09-09T03:23:39;99814.48;;;20.06;64.22
63181;BME280;49273;37.772;-122.432;2022-09-09T03:26:07;99817.10;;;19.67;65.22
63181;BME280;49273;37.772;-122.432;2022-09-09T03:28:35;99812.47;;;19.51;65.71
63181;BME280;49273;37.772;-122.432;2022-09-09T03:31:05;99819.17;;;19.46;66.00
63181;BME280;49273;37.772;-122.432;2022-09-09T03:33:32;99824.21;;;19.60;65.65
63181;BME280;49273;37.772;-122.432;2022-09-09T03:36:00;99827.63;;;19.52;65.99
63181;BME280;49273;37.772;-122.432;2022-09-09T03:38:28;99832.60;;;19.71;65.41
63181;BME280;49273;37.772;-122.432;2022-09-09T03:40:57;99836.70;;;19.50;66.25
63181;BME280;49273;37.772;-122.432;2022-09-09T03:43:27;99835.94;;;19.49;66.49
63181;BME280;49273;37.772;-122.432;2022-09-09T03:45:55;99835.62;;;19.42;66.91
63181;BME280;49273;37.772;-122.432;2022-09-09T03:48:24;99835.67;;;19.38;67.32
63181;BME280;49273;37.772;-122.432;2022-09-09T03:50:54;99834.77;;;19.17;68.27
63181;BME280;49273;37.772;-122.432;2022-09-09T03:53:23;99839.12;;;19.47;67.55
63181;BME280;49273;37.772;-122.432;2022-09-09T03:55:54;99838.34;;;19.39;67.86
63181;BME280;49273;37.772;-122.432;2022-09-09T03:58:23;99843.22;;;19.32;68.21
63181;BME280;49273;37.772;-122.432;2022-09-09T04:00:55;99843.56;;;19.35;67.99
63181;BME280;49273;37.772;-122.432;2022-09-09T04:03:23;99848.14;;;19.49;67.07
63181;BME280;49273;37.772;-122.432;2022-09-09T04:05:52;99850.74;;;19.35;67.26
63181;BME280;49273;37.772;-122.432;2022-09-09T04:08:21;99849.16;;;19.39;67.00
63181;BME280;49273;37.772;-122.432;2022-09-09T04:10:50;99845.24;;;19.43;66.86
63181;BME280;49273;37.772;-122.432;2022-09-09T04:13:19;99851.51;;;19.23;67.64
63181;BME280;49273;37.772;-122.432;2022-09-09T04:15:53;99856.15;;;19.11;67.89
63181;BME280;49273;37.772;-122.432;2022-09-09T04:18:22;99855.82;;;19.18;67.54
63181;BME280;49273;37.772;-122.432;2022-09-09T04:20:52;99854.41;;;19.42;67.38
63181;BME280;49273;37.772;-122.432;2022-09-09T04:23:21;99867.06;;;19.26;66.48
63181;BME280;49273;37.772;-122.432;2022-09-09T04:25:51;99871.03;;;18.99;66.92
63181;BME280;49273;37.772;-122.432;2022-09-09T04:28:22;99872.95;;;19.27;65.36
63181;BME280;49273;37.772;-122.432;2022-09-09T04:30:51;99874.07;;;19.32;64.65
63181;BME280;49273;37.772;-122.432;2022-09-09T04:33:20;99869.10;;;19.20;64.26
63181;BME280;49273;37.772;-122.432;2022-09-09T04:35:49;99867.15;;;19.41;63.94
63181;BME280;49273;37.772;-122.432;2022-09-09T04:38:18;99873.21;;;19.24;64.35
63181;BME280;49273;37.772;-122.432;2022-09-09T04:40:47;99874.56;;;19.33;64.64
63181;BME280;49273;37.772;-122.432;2022-09-09T04:43:17;99871.14;;;19.44;64.88
63181;BME280;49273;37.772;-122.432;2022-09-09T04:45:48;99875.24;;;19.61;64.42
63181;BME280;49273;37.772;-122.432;2022-09-09T04:48:16;99869.19;;;19.49;64.71
63181;BME280;49273;37.772;-122.432;2022-09-09T04:50:47;99872.02;;;19.21;65.94
63181;BME280;49273;37.772;-122.432;2022-09-09T04:53:20;99864.88;;;19.16;66.21
63181;BME280;49273;37.772;-122.432;2022-09-09T04:55:49;99864.76;;;19.15;66.36
63181;BME280;49273;37.772;-122.432;2022-09-09T04:58:17;99869.18;;;19.00;66.73
63181;BME280;49273;37.772;-122.432;2022-09-09T05:00:45;99872.17;;;19.03;66.64
63181;BME280;49273;37.772;-122.432;2022-09-09T05:03:13;99878.43;;;19.11;66.44
63181;BME280;49273;37.772;-122.432;2022-09-09T05:05:42;99876.06;;;19.15;66.23
63181;BME280;49273;37.772;-122.432;2022-09-09T05:08:10;99871.46;;;18.95;66.94
63181;BME280;49273;37.772;-122.432;2022-09-09T05:10:39;99866.61;;;19.13;66.80
63181;BME280;49273;37.772;-122.432;2022-09-09T05:13:07;99857.79;;;18.80;67.14
63181;BME280;49273;37.772;-122.432;2022-09-09T05:15:34;99857.30;;;18.77;66.87
63181;BME280;49273;37.772;-122.432;2022-09-09T05:18:03;99858.72;;;19.04;65.95
63181;BME280;49273;37.772;-122.432;2022-09-09T05:20:30;99858.39;;;18.93;65.98
63181;BME280;49273;37.772;-122.432;2022-09-09T05:22:59;99860.99;;;18.81;66.29
63181;BME280;49273;37.772;-122.432;2022-09-09T05:25:27;99860.32;;;18.81;66.44
63181;BME280;49273;37.772;-122.432;2022-09-09T05:27:55;99861.44;;;18.86;66.07
63181;BME280;49273;37.772;-122.432;2022-09-09T05:30:24;99859.05;;;18.70;66.28
63181;BME280;49273;37.772;-122.432;2022-09-09T05:32:52;99858.33;;;18.81;66.13
63181;BME280;49273;37.772;-122.432;2022-09-09T05:35:19;99859.50;;;18.83;66.32
63181;BME280;49273;37.772;-122.432;2022-09-09T05:37:48;99862.35;;;18.98;65.95
63181;BME280;49273;37.772;-122.432;2022-09-09T05:40:15;99863.89;;;18.90;66.01
63181;BME280;49273;37.772;-122.432;2022-09-09T05:42:43;99864.44;;;18.74;66.60
63181;BME280;49273;37.772;-122.432;2022-09-09T05:45:11;99860.53;;;18.87;66.40
63181;BME280;49273;37.772;-122.432;2022-09-09T05:47:39;99861.91;;;18.97;66.26
63181;BME280;49273;37.772;-122.432;2022-09-09T05:50:07;99860.96;;;18.51;67.39
63181;BME280;49273;37.772;-122.432;2022-09-09T05:52:36;99862.13;;;18.95;66.16
63181;BME280;49273;37.772;-122.432;2022-09-09T05:55:05;99861.33;;;18.68;66.93
63181;BME280;49273;37.772;-122.432;2022-09-09T05:57:34;99859.31;;;18.74;67.18
63181;BME280;49273;37.772;-122.432;2022-09-09T06:00:03;99861.15;;;18.75;67.28
63181;BME280;49273;37.772;-122.432;2022-09-09T06:02:31;99861.30;;;18.57;67.94
63181;BME280;49273;37.772;-122.432;2022-09-09T06:05:00;99864.99;;;18.64;68.00
63181;BME280;49273;37.772;-122.432;2022-09-09T06:07:28;99873.26;;;18.77;67.51
63181;BME280;49273;37.772;-122.432;2022-09-09T06:09:56;99872.80;;;18.53;67.62
63181;BME280;49273;37.772;-122.432;2022-09-09T06:12:23;99871.97;;;18.66;67.40
63181;BME280;49273;37.772;-122.432;2022-09-09T06:14:53;99873.41;;;18.59;67.02
63181;BME280;49273;37.772;-122.432;2022-09-09T06:17:21;99871.18;;;18.69;67.20
63181;BME280;49273;37.772;-122.432;2022-09-09T06:19:50;99870.87;;;18.57;67.58
63181;BME280;49273;37.772;-122.432;2022-09-09T06:22:18;99873.53;;;18.70;67.90
63181;BME280;49273;37.772;-122.432;2022-09-09T06:24:46;99868.41;;;18.80;67.13
63181;BME280;49273;37.772;-122.432;2022-09-09T06:27:14;99870.55;;;18.48;67.80
63181;BME280;49273;37.772;-122.432;2022-09-09T06:29:42;99873.30;;;18.67;67.49
63181;BME280;49273;37.772;-122.432;2022-09-09T06:32:10;99865.85;;;18.66;68.22
63181;BME280;49273;37.772;-122.432;2022-09-09T06:34:43;99867.20;;;18.60;68.52
63181;BME280;49273;37.772;-122.432;2022-09-09T06:37:11;99862.25;;;18.91;67.46
63181;BME280;49273;37.772;-122.432;2022-09-09T06:39:39;99866.04;;;18.55;68.00
63181;BME280;49273;37.772;-122.432;2022-09-09T06:42:07;99863.55;;;18.70;67.84
63181;BME280;49273;37.772;-122.432;2022-09-09T06:44:35;99873.67;;;18.72;67.89
63181;BME280;49273;37.772;-122.432;2022-09-09T06:47:04;99876.60;;;18.72;67.80
63181;BME280;49273;37.772;-122.432;2022-09-09T06:49:32;99875.87;;;18.59;68.01
63181;BME280;49273;37.772;-122.432;2022-09-09T06:52:00;99880.53;;;18.82;66.84
63181;BME280;49273;37.772;-122.432;2022-09-09T06:54:28;99873.79;;;18.52;67.34
63181;BME280;49273;37.772;-122.432;2022-09-09T06:56:56;99870.59;;;18.61;67.07
63181;BME280;49273;37.772;-122.432;2022-09-09T06:59:25;99865.39;;;18.36;67.38
63181;BME280;49273;37.772;-122.432;2022-09-09T07:01:52;99857.74;;;18.24;67.56
63181;BME280;49273;37.772;-122.432;2022-09-09T07:04:20;99857.47;;;18.25;67.43
63181;BME280;49273;37.772;-122.432;2022-09-09T07:06:49;99850.79;;;18.38;67.09
63181;BME280;49273;37.772;-122.432;2022-09-09T07:09:17;99841.25;;;18.52;66.94
63181;BME280;49273;37.772;-122.432;2022-09-09T07:11:47;99830.25;;;18.62;67.18
63181;BME280;49273;37.772;-122.432;2022-09-09T07:14:15;99827.91;;;18.50;67.84
63181;BME280;49273;37.772;-122.432;2022-09-09T07:16:44;99822.94;;;18.73;67.47
63181;BME280;49273;37.772;-122.432;2022-09-09T07:19:13;99816.57;;;18.83;66.55
63181;BME280;49273;37.772;-122.432;2022-09-09T07:21:41;99809.55;;;18.86;66.66
63181;BME280;49273;37.772;-122.432;2022-09-09T07:24:10;99802.36;;;18.75;68.05
63181;BME280;49273;37.772;-122.432;2022-09-09T07:26:39;99802.56;;;18.43;68.68
63181;BME280;49273;37.772;-122.432;2022-09-09T07:29:08;99792.03;;;18.44;68.63
63181;BME280;49273;37.772;-122.432;2022-09-09T07:31:38;99791.48;;;18.07;70.30
63181;BME280;49273;37.772;-122.432;2022-09-09T07:34:07;99789.90;;;18.38;69.90
63181;BME280;49273;37.772;-122.432;2022-09-09T07:36:37;99785.53;;;18.39;69.91
63181;BME280;49273;37.772;-122.432;2022-09-09T07:39:07;99778.09;;;18.06;70.40
63181;BME280;49273;37.772;-122.432;2022-09-09T07:41:38;99765.77;;;18.23;70.01
63181;BME280;49273;37.772;-122.432;2022-09-09T07:44:07;99765.29;;;18.14;69.76
63181;BME280;49273;37.772;-122.432;2022-09-09T07:46:35;99754.19;;;18.08;70.19
63181;BME280;49273;37.772;-122.432;2022-09-09T07:49:04;99753.01;;;18.07;69.97
63181;BME280;49273;37.772;-122.432;2022-09-09T07:51:34;99747.40;;;18.23;69.39
63181;BME280;49273;37.772;-122.432;2022-09-09T07:54:04;99748.03;;;18.12;69.15
63181;BME280;49273;37.772;-122.432;2022-09-09T07:56:33;99751.14;;;17.81;70.21
63181;BME280;49273;37.772;-122.432;2022-09-09T07:59:02;99747.22;;;17.91;70.41
63181;BME280;49273;37.772;-122.432;2022-09-09T08:01:31;99756.84;;;17.96;69.88
63181;BME280;49273;37.772;-122.432;2022-09-09T08:04:02;99759.07;;;17.97;69.40
63181;BME280;49273;37.772;-122.432;2022-09-09T08:06:33;99769.82;;;18.15;69.71
63181;BME280;49273;37.772;-122.432;2022-09-09T08:09:01;99774.75;;;18.15;69.65
63181;BME280;49273;37.772;-122.432;2022-09-09T08:11:30;99780.65;;;18.36;68.46
63181;BME280;49273;37.772;-122.432;2022-09-09T08:13:58;99782.12;;;17.97;67.47
63181;BME280;49273;37.772;-122.432;2022-09-09T08:16:28;99773.77;;;18.01;67.22
63181;BME280;49273;37.772;-122.432;2022-09-09T08:18:57;99776.04;;;17.98;67.67
63181;BME280;49273;37.772;-122.432;2022-09-09T08:21:27;99770.25;;;17.98;67.91
63181;BME280;49273;37.772;-122.432;2022-09-09T08:23:57;99768.97;;;18.30;67.56
63181;BME280;49273;37.772;-122.432;2022-09-09T08:26:27;99765.40;;;18.18;68.57
63181;BME280;49273;37.772;-122.432;2022-09-09T08:28:57;99765.00;;;18.27;68.50
63181;BME280;49273;37.772;-122.432;2022-09-09T08:31:27;99765.19;;;18.17;69.04
63181;BME280;49273;37.772;-122.432;2022-09-09T08:33:56;99766.82;;;18.24;68.66
63181;BME280;49273;37.772;-122.432;2022-09-09T08:36:26;99767.54;;;18.17;68.27
63181;BME280;49273;37.772;-122.432;2022-09-09T08:38:56;99760.64;;;18.08;68.38
63181;BME280;49273;37.772;-122.432;2022-09-09T08:42:11;99752.62;;;17.74;68.98
63181;BME280;49273;37.772;-122.432;2022-09-09T08:44:52;99740.62;;;18.04;68.81
63181;BME280;49273;37.772;-122.432;2022-09-09T08:47:33;99735.27;;;18.16;68.39
63181;BME280;49273;37.772;-122.432;2022-09-09T08:50:15;99737.48;;;18.10;68.57
63181;BME280;49273;37.772;-122.432;2022-09-09T08:52:53;99736.51;;;18.24;68.35
63181;BME280;49273;37.772;-122.432;2022-09-09T08:55:26;99738.43;;;18.30;68.17
63181;BME280;49273;37.772;-122.432;2022-09-09T08:57:57;99734.95;;;18.29;67.21
63181;BME280;49273;37.772;-122.432;2022-09-09T09:00:34;99733.62;;;18.04;67.23
63181;BME280;49273;37.772;-122.432;2022-09-09T09:03:15;99730.49;;;17.83;67.63
63181;BME280;49273;37.772;-122.432;2022-09-09T09:05:55;99732.34;;;17.84;68.07
63181;BME280;49273;37.772;-122.432;2022-09-09T09:08:29;99723.69;;;17.91;68.82
63181;BME280;49273;37.772;-122.432;2022-09-09T09:11:01;99727.84;;;18.05;68.24
63181;BME280;49273;37.772;-122.432;2022-09-09T09:13:35;99723.45;;;18.02;68.54
63181;BME280;49273;37.772;-122.432;2022-09-09T09:16:14;99728.01;;;17.57;70.03
63181;BME280;49273;37.772;-122.432;2022-09-09T09:18:45;99720.91;;;17.89;67.68
63181;BME280;49273;37.772;-122.432;2022-09-09T09:21:15;99726.73;;;17.81;68.34
63181;BME280;49273;37.772;-122.432;2022-09-09T09:23:47;99726.47;;;17.79;68.54
63181;BME280;49273;37.772;-122.432;2022-09-09T09:26:17;99727.64;;;17.88;67.51
63181;BME280;49273;37.772;-122.432;2022-09-09T09:28:46;99727.37;;;17.95;67.26
63181;BME280;49273;37.772;-122.432;2022-09-09T09:31:14;99730.88;;;17.86;68.07
63181;BME280;49273;37.772;-122.432;2022-09-09T09:33:47;99727.70;;;17.99;68.22
63181;BME280;49273;37.772;-122.432;2022-09-09T09:36:16;99719.49;;;17.87;68.89
63181;BME280;49273;37.772;-122.432;2022-09-09T09:38:54;99722.89;;;17.72;69.28
63181;BME280;49273;37.772;-122.432;2022-09-09T09:41:31;99719.65;;;17.96;68.59
63181;BME280;49273;37.772;-122.432;2022-09-09T09:44:00;99723.12;;;17.69;69.11
63181;BME280;49273;37.772;-122.432;2022-09-09T09:46:28;99713.56;;;18.16;68.22
63181;BME280;49273;37.772;-122.432;2022-09-09T09:48:59;99706.83;;;17.98;68.53
63181;BME280;49273;37.772;-122.432;2022-09-09T09:51:28;99700.54;;;18.11;68.22
63181;BME280;49273;37.772;-122.432;2022-09-09T09:54:11;99700.19;;;18.16;68.35
63181;BME280;49273;37.772;-122.432;2022-09-09T09:56:43;99702.23;;;18.23;68.59
63181;BME280;49273;37.772;-122.432;2022-09-09T09:59:23;99702.58;;;18.22;68.42
63181;BME280;49273;37.772;-122.432;2022-09-09T10:01:51;99701.62;;;18.21;68.43
63181;BME280;49273;37.772;-122.432;2022-09-09T10:04:21;99700.66;;;18.00;68.88
63181;BME280;49273;37.772;-122.432;2022-09-09T10:06:50;99704.19;;;17.56;70.42
63181;BME280;49273;37.772;-122.432;2022-09-09T10:09:23;99704.58;;;17.47;70.56
63181;BME280;49273;37.772;-122.432;2022-09-09T10:11:57;99708.39;;;17.35;71.00
63181;BME280;49273;37.772;-122.432;2022-09-09T10:14:35;99703.55;;;17.26;71.08
63181;BME280;49273;37.772;-122.432;2022-09-09T10:17:15;99700.10;;;17.21;71.07
63181;BME280;49273;37.772;-122.432;2022-09-09T10:19:58;99703.14;;;17.14;71.72
63181;BME280;49273;37.772;-122.432;2022-09-09T10:22:33;99704.79;;;17.16;72.28
63181;BME280;49273;37.772;-122.432;2022-09-09T10:25:11;99702.26;;;17.39;71.59
63181;BME280;49273;37.772;-122.432;2022-09-09T10:27:50;99697.31;;;17.30;72.29
63181;BME280;49273;37.772;-122.432;2022-09-09T10:30:23;99692.00;;;17.19;72.94
63181;BME280;49273;37.772;-122.432;2022-09-09T10:33:01;99690.03;;;17.17;73.08
63181;BME280;49273;37.772;-122.432;2022-09-09T10:35:35;99684.87;;;17.16;73.08
63181;BME280;49273;37.772;-122.432;2022-09-09T10:38:16;99686.83;;;17.61;72.16
63181;BME280;49273;37.772;-122.432;2022-09-09T10:41:09;99678.82;;;17.67;71.34
63181;BME280;49273;37.772;-122.432;2022-09-09T10:44:29;99676.42;;;17.89;70.97
63181;BME280;49273;37.772;-122.432;2022-09-09T10:47:28;99664.92;;;17.52;71.67
63181;BME280;49273;37.772;-122.432;2022-09-09T10:50:18;99659.10;;;17.56;71.88
63181;BME280;49273;37.772;-122.432;2022-09-09T10:52:59;99656.24;;;17.34;72.86
63181;BME280;49273;37.772;-122.432;2022-09-09T10:55:38;99659.47;;;17.17;73.29
63181;BME280;49273;37.772;-122.432;2022-09-09T10:58:13;99663.98;;;17.63;72.02
63181;BME280;49273;37.772;-122.432;2022-09-09T11:00:45;99665.21;;;17.37;72.23
63181;BME280;49273;37.772;-122.432;2022-09-09T11:03:20;99665.24;;;17.19;73.29
63181;BME280;49273;37.772;-122.432;2022-09-09T11:05:51;99658.69;;;17.06;73.90
63181;BME280;49273;37.772;-122.432;2022-09-09T11:08:26;99657.51;;;16.75;74.94
63181;BME280;49273;37.772;-122.432;2022-09-09T11:11:00;99653.37;;;16.89;74.83
63181;BME280;49273;37.772;-122.432;2022-09-09T11:13:37;99654.15;;;16.83;74.89
63181;BME280;49273;37.772;-122.432;2022-09-09T11:16:17;99648.99;;;16.69;75.22
63181;BME280;49273;37.772;-122.432;2022-09-09T11:18:49;99650.89;;;16.78;75.04
63181;BME280;49273;37.772;-122.432;2022-09-09T11:21:21;99647.71;;;17.20;74.51
63181;BME280;49273;37.772;-122.432;2022-09-09T11:23:55;99645.11;;;17.33;73.18
63181;BME280;49273;37.772;-122.432;2022-09-09T11:26:31;99638.04;;;17.36;72.91
63181;BME280;49273;37.772;-122.432;2022-09-09T11:29:15;99635.44;;;17.47;72.05
63181;BME280;49273;37.772;-122.432;2022-09-09T11:31:58;99634.12;;;17.36;72.14
63181;BME280;49273;37.772;-122.432;2022-09-09T11:34:40;99635.93;;;17.25;72.58
63181;BME280;49273;37.772;-122.432;2022-09-09T11:37:23;99637.16;;;16.75;74.04
63181;BME280;49273;37.772;-122.432;2022-09-09T11:40:07;99634.88;;;16.72;74.50
63181;BME280;49273;37.772;-122.432;2022-09-09T11:42:37;99627.91;;;16.67;74.89
63181;BME280;49273;37.772;-122.432;2022-09-09T11:45:24;99626.79;;;16.45;75.52
63181;BME280;49273;37.772;-122.432;2022-09-09T11:47:55;99624.84;;;16.43;76.19
63181;BME280;49273;37.772;-122.432;2022-09-09T11:50:30;99617.06;;;16.52;75.36
63181;BME280;49273;37.772;-122.432;2022-09-09T11:53:19;99612.90;;;16.17;76.46
63181;BME280;49273;37.772;-122.432;2022-09-09T11:55:47;99614.53;;;16.61;74.87
63181;BME280;49273;37.772;-122.432;2022-09-09T11:58:17;99609.50;;;16.50;75.03
63181;BME280;49273;37.772;-122.432;2022-09-09T12:00:48;99610.02;;;16.61;74.93
63181;BME280;49273;37.772;-122.432;2022-09-09T12:03:36;99607.50;;;16.55;75.01
63181;BME280;49273;37.772;-122.432;2022-09-09T12:06:16;99599.94;;;16.51;75.33
63181;BME280;49273;37.772;-122.432;2022-09-09T12:08:50;99595.39;;;16.39;75.62
63181;BME280;49273;37.772;-122.432;2022-09-09T12:11:28;99600.98;;;16.36;75.54
63181;BME280;49273;37.772;-122.432;2022-09-09T12:14:00;99602.17;;;16.30;75.72
63181;BME280;49273;37.772;-122.432;2022-09-09T12:16:31;99600.67;;;16.45;75.24
63181;BME280;49273;37.772;-122.432;2022-09-09T12:19:14;99604.20;;;16.26;76.22
63181;BME280;49273;37.772;-122.432;2022-09-09T12:21:49;99608.53;;;16.46;75.46
63181;BME280;49273;37.772;-122.432;2022-09-09T12:24:23;99611.90;;;16.57;75.02
63181;BME280;49273;37.772;-122.432;2022-09-09T12:26:59;99613.30;;;16.51;75.06
63181;BME280;49273;37.772;-122.432;2022-09-09T12:29:36;99609.58;;;16.49;75.17
63181;BME280;49273;37.772;-122.432;2022-09-09T12:32:08;99607.97;;;16.63;75.28
63181;BME280;49273;37.772;-122.432;2022-09-09T12:34:41;99603.48;;;16.77;74.32
63181;BME280;49273;37.772;-122.432;2022-09-09T12:37:17;99602.24;;;17.00;73.59
63181;BME280;49273;37.772;-122.432;2022-09-09T12:39:53;99601.85;;;17.02;73.22
63181;BME280;49273;37.772;-122.432;2022-09-09T12:42:23;99601.89;;;16.98;73.47
63181;BME280;49273;37.772;-122.432;2022-09-09T12:44:53;99598.66;;;16.72;74.63
63181;BME280;49273;37.772;-122.432;2022-09-09T12:47:25;99594.57;;;16.40;75.77
63181;BME280;49273;37.772;-122.432;2022-09-09T12:49:53;99596.32;;;16.44;75.84
63181;BME280;49273;37.772;-122.432;2022-09-09T12:52:26;99586.81;;;16.34;76.44
63181;BME280;49273;37.772;-122.432;2022-09-09T12:54:55;99587.42;;;16.03;77.69
63181;BME280;49273;37.772;-122.432;2022-09-09T12:57:26;99584.10;;;16.46;76.55